sensor_id;sensor_type;location;lat;lon;timestamp;pressure;altitude;pressure_sealevel;temperature;humidity
55418;BME280;41287;47.554;7.844;2023-04-06T00:00:56;98254.00;;;16.47;60.93
55418;BME280;41287;47.554;7.844;2023-04-06T00:03:21;98251.28;;;16.47;60.91
55418;BME280;41287;47.554;7.844;2023-04-06T00:05:47;98241.59;;;16.46;60.96
55418;BME280;41287;47.554;7.844;2023-04-06T00:08:13;98247.00;;;16.46;60.84
55418;BME280;41287;47.554;7.844;2023-04-06T00:10:38;98242.69;;;16.45;60.85
55418;BME280;41287;47.554;7.844;2023-04-06T00:13:05;98245.09;;;16.47;60.78
55418;BME280;41287;47.554;7.844;2023-04-06T00:15:30;98245.88;;;16.47;61.36
55418;BME280;41287;47.554;7.844;2023-04-06T00:17:56;98240.78;;;16.46;60.86
55418;BME280;41287;47.554;7.844;2023-04-06T00:20:22;98243.47;;;16.46;60.95
55418;BME280;41287;47.554;7.844;2023-04-06T00:22:48;98240.78;;;16.46;60.84
55418;BME280;41287;47.554;7.844;2023-04-06T00:25:14;98238.88;;;16.46;60.98
55418;BME280;41287;47.554;7.844;2023-04-06T00:27:40;98236.97;;;16.47;60.96
55418;BME280;41287;47.554;7.844;2023-04-06T00:30:07;98231.56;;;16.47;60.89
55418;BME280;41287;47.554;7.844;2023-04-06T00:32:34;98229.66;;;16.47;60.90
55418;BME280;41287;47.554;7.844;2023-04-06T00:35:02;98233.47;;;16.46;60.99
55418;BME280;41287;47.554;7.844;2023-04-06T00:37:28;98225.66;;;16.45;60.90
55418;BME280;41287;47.554;7.844;2023-04-06T00:39:53;98226.16;;;16.47;60.97
55418;BME280;41287;47.554;7.844;2023-04-06T00:42:20;98222.66;;;16.46;60.97
55418;BME280;41287;47.554;7.844;2023-04-06T00:44:54;98215.63;;;16.45;60.96
55418;BME280;41287;47.554;7.844;2023-04-06T00:47:21;98223.75;;;16.45;60.89
55418;BME280;41287;47.554;7.844;2023-04-06T00:49:47;98219.16;;;16.46;60.94
55418;BME280;41287;47.554;7.844;2023-04-06T00:52:12;98223.75;;;16.45;60.87
55418;BME280;41287;47.554;7.844;2023-04-06T00:54:38;98217.25;;;16.46;60.88
55418;BME280;41287;47.554;7.844;2023-04-06T00:57:03;98219.94;;;16.46;60.87
55418;BME280;41287;47.554;7.844;2023-04-06T00:59:31;98214.84;;;16.45;60.97
55418;BME280;41287;47.554;7.844;2023-04-06T01:01:57;98217.25;;;16.46;60.87
55418;BME280;41287;47.554;7.844;2023-04-06T01:04:22;98211.03;;;16.46;60.96
55418;BME280;41287;47.554;7.844;2023-04-06T01:06:49;98212.13;;;16.45;60.96
55418;BME280;41287;47.554;7.844;2023-04-06T01:09:14;98210.22;;;16.45;60.88
55418;BME280;41287;47.554;7.844;2023-04-06T01:11:42;98212.94;;;16.45;60.93
55418;BME280;41287;47.554;7.844;2023-04-06T01:14:10;98213.72;;;16.46;60.91
55418;BME280;41287;47.554;7.844;2023-04-06T01:16:36;98211.03;;;16.46;60.91
55418;BME280;41287;47.554;7.844;2023-04-06T01:19:08;98210.22;;;16.45;60.97
55418;BME280;41287;47.554;7.844;2023-04-06T01:21:33;98207.53;;;16.45;60.97
55418;BME280;41287;47.554;7.844;2023-04-06T01:23:59;98204.81;;;16.45;60.90
55418;BME280;41287;47.554;7.844;2023-04-06T01:26:24;98199.41;;;16.45;60.93
55418;BME280;41287;47.554;7.844;2023-04-06T01:28:50;98199.41;;;16.45;60.87
55418;BME280;41287;47.554;7.844;2023-04-06T01:31:17;98201.31;;;16.45;60.83
55418;BME280;41287;47.554;7.844;2023-04-06T01:33:43;98199.41;;;16.45;60.83
55418;BME280;41287;47.554;7.844;2023-04-06T01:36:08;98185.88;;;16.45;60.96
55418;BME280;41287;47.554;7.844;2023-04-06T01:38:34;98186.69;;;16.46;60.89
55418;BME280;41287;47.554;7.844;2023-04-06T01:41:00;98192.09;;;16.46;60.90
55418;BME280;41287;47.554;7.844;2023-04-06T01:43:27;98178.56;;;16.46;60.94
55418;BME280;41287;47.554;7.844;2023-04-06T01:45:52;98187.50;;;16.46;60.84
55418;BME280;41287;47.554;7.844;2023-04-06T01:48:18;98182.38;;;16.45;60.82
55418;BME280;41287;47.554;7.844;2023-04-06T01:50:43;98178.56;;;16.46;61.00
55418;BME280;41287;47.554;7.844;2023-04-06T01:53:09;98179.69;;;16.45;60.99
55418;BME280;41287;47.554;7.844;2023-04-06T01:55:36;98177.78;;;16.45;60.90
55418;BME280;41287;47.554;7.844;2023-04-06T01:58:02;98180.47;;;16.45;60.93
55418;BME280;41287;47.554;7.844;2023-04-06T02:00:27;98183.19;;;16.45;60.90
55418;BME280;41287;47.554;7.844;2023-04-06T02:02:52;98192.91;;;16.46;60.91
55418;BME280;41287;47.554;7.844;2023-04-06T02:05:19;98190.50;;;16.45;60.85
55418;BME280;41287;47.554;7.844;2023-04-06T02:07:45;98187.50;;;16.46;60.87
55418;BME280;41287;47.554;7.844;2023-04-06T02:10:14;98187.78;;;16.45;60.91
55418;BME280;41287;47.554;7.844;2023-04-06T02:12:40;98194.00;;;16.45;60.90
55418;BME280;41287;47.554;7.844;2023-04-06T02:15:06;98194.81;;;16.46;60.86
55418;BME280;41287;47.554;7.844;2023-04-06T02:17:31;98185.88;;;16.45;60.83
55418;BME280;41287;47.554;7.844;2023-04-06T02:19:57;98185.88;;;16.45;60.97
55418;BME280;41287;47.554;7.844;2023-04-06T02:22:23;98189.72;;;16.44;60.91
55418;BME280;41287;47.554;7.844;2023-04-06T02:24:48;98194.34;;;16.44;61.04
55418;BME280;41287;47.554;7.844;2023-04-06T02:27:14;98187.78;;;16.45;60.93
55418;BME280;41287;47.554;7.844;2023-04-06T02:29:41;98187.78;;;16.45;60.97
55418;BME280;41287;47.554;7.844;2023-04-06T02:32:10;98187.78;;;16.45;60.89
55418;BME280;41287;47.554;7.844;2023-04-06T02:34:36;98184.31;;;16.44;60.87
55418;BME280;41287;47.554;7.844;2023-04-06T02:37:01;98183.19;;;16.45;60.99
55418;BME280;41287;47.554;7.844;2023-04-06T02:39:27;98176.97;;;16.45;60.87
55418;BME280;41287;47.554;7.844;2023-04-06T02:41:52;98180.81;;;16.44;60.86
55418;BME280;41287;47.554;7.844;2023-04-06T02:44:18;98170.81;;;16.44;60.82
55418;BME280;41287;47.554;7.844;2023-04-06T02:46:43;98171.91;;;16.43;60.89
55418;BME280;41287;47.554;7.844;2023-04-06T02:49:09;98170.00;;;16.44;60.82
55418;BME280;41287;47.554;7.844;2023-04-06T02:51:36;98170.81;;;16.44;60.90
55418;BME280;41287;47.554;7.844;2023-04-06T02:54:02;98172.72;;;16.44;60.89
55418;BME280;41287;47.554;7.844;2023-04-06T02:56:27;98169.22;;;16.43;60.85
55418;BME280;41287;47.554;7.844;2023-04-06T02:58:52;98169.22;;;16.43;60.88
55418;BME280;41287;47.554;7.844;2023-04-06T03:01:18;98173.50;;;16.44;60.98
55418;BME280;41287;47.554;7.844;2023-04-06T03:03:43;98173.50;;;16.44;60.95
55418;BME280;41287;47.554;7.844;2023-04-06T03:06:09;98166.50;;;16.43;60.91
55418;BME280;41287;47.554;7.844;2023-04-06T03:08:34;98176.22;;;16.44;60.82
55418;BME280;41287;47.554;7.844;2023-04-06T03:11:00;98166.16;;;16.45;60.90
55418;BME280;41287;47.554;7.844;2023-04-06T03:13:25;98168.09;;;16.44;60.88
55418;BME280;41287;47.554;7.844;2023-04-06T03:15:51;98169.22;;;16.43;60.83
55418;BME280;41287;47.554;7.844;2023-04-06T03:18:20;98171.91;;;16.43;60.94
55418;BME280;41287;47.554;7.844;2023-04-06T03:20:46;98169.22;;;16.43;60.84
55418;BME280;41287;47.554;7.844;2023-04-06T03:23:12;98166.50;;;16.43;60.79
55418;BME280;41287;47.554;7.844;2023-04-06T03:25:37;98183.53;;;16.44;60.99
55418;BME280;41287;47.554;7.844;2023-04-06T03:28:06;98180.03;;;16.43;60.85
55418;BME280;41287;47.554;7.844;2023-04-06T03:30:34;98176.53;;;16.43;60.88
55418;BME280;41287;47.554;7.844;2023-04-06T03:32:59;98173.81;;;16.43;60.73
55418;BME280;41287;47.554;7.844;2023-04-06T03:35:25;98168.41;;;16.43;60.96
55418;BME280;41287;47.554;7.844;2023-04-06T03:37:50;98171.91;;;16.43;60.96
55418;BME280;41287;47.554;7.844;2023-04-06T03:40:17;98175.41;;;16.44;60.97
55418;BME280;41287;47.554;7.844;2023-04-06T03:42:43;98183.84;;;16.42;61.05
55418;BME280;41287;47.554;7.844;2023-04-06T03:45:09;98184.63;;;16.43;60.83
55418;BME280;41287;47.554;7.844;2023-04-06T03:47:34;98184.63;;;16.43;61.00
55418;BME280;41287;47.554;7.844;2023-04-06T03:50:00;98180.03;;;16.43;60.86
55418;BME280;41287;47.554;7.844;2023-04-06T03:52:27;98177.63;;;16.42;60.84
55418;BME280;41287;47.554;7.844;2023-04-06T03:54:54;98181.13;;;16.42;60.97
55418;BME280;41287;47.554;7.844;2023-04-06T03:57:20;98186.53;;;16.42;60.91
55418;BME280;41287;47.554;7.844;2023-04-06T03:59:45;98186.53;;;16.42;60.99
55418;BME280;41287;47.554;7.844;2023-04-06T04:02:10;98186.53;;;16.42;60.90
55418;BME280;41287;47.554;7.844;2023-04-06T04:04:38;98188.13;;;16.43;60.96
55418;BME280;41287;47.554;7.844;2023-04-06T04:07:03;98182.72;;;16.43;60.94
55418;BME280;41287;47.554;7.844;2023-04-06T04:09:29;98190.03;;;16.43;60.94
55418;BME280;41287;47.554;7.844;2023-04-06T04:11:55;98194.66;;;16.42;60.98
55418;BME280;41287;47.554;7.844;2023-04-06T04:14:20;98191.94;;;16.42;60.88
55418;BME280;41287;47.554;7.844;2023-04-06T04:16:46;98190.34;;;16.41;61.05
55418;BME280;41287;47.554;7.844;2023-04-06T04:19:11;98194.66;;;16.42;60.90
55418;BME280;41287;47.554;7.844;2023-04-06T04:21:43;98199.25;;;16.42;60.99
55418;BME280;41287;47.554;7.844;2023-04-06T04:24:09;98204.38;;;16.43;60.84
55418;BME280;41287;47.554;7.844;2023-04-06T04:26:34;98205.16;;;16.44;61.15
55418;BME280;41287;47.554;7.844;2023-04-06T04:29:00;98205.63;;;16.46;61.40
55418;BME280;41287;47.554;7.844;2023-04-06T04:31:25;98210.41;;;16.49;61.61
55418;BME280;41287;47.554;7.844;2023-04-06T04:33:53;98215.34;;;16.55;62.33
55418;BME280;41287;47.554;7.844;2023-04-06T04:36:18;98215.22;;;16.61;62.32
55418;BME280;41287;47.554;7.844;2023-04-06T04:38:44;98206.63;;;16.67;62.21
55418;BME280;41287;47.554;7.844;2023-04-06T04:41:09;98213.81;;;16.72;61.88
55418;BME280;41287;47.554;7.844;2023-04-06T04:43:35;98211.25;;;16.75;62.03
55418;BME280;41287;47.554;7.844;2023-04-06T04:46:02;98211.75;;;16.77;61.95
55418;BME280;41287;47.554;7.844;2023-04-06T04:48:30;98217.63;;;16.79;62.05
55418;BME280;41287;47.554;7.844;2023-04-06T04:50:55;98215.41;;;16.81;62.59
55418;BME280;41287;47.554;7.844;2023-04-06T04:53:21;98217.78;;;16.83;63.27
55418;BME280;41287;47.554;7.844;2023-04-06T04:55:46;98214.78;;;16.84;63.97
55418;BME280;41287;47.554;7.844;2023-04-06T04:58:11;98223.34;;;16.86;64.46
55418;BME280;41287;47.554;7.844;2023-04-06T05:00:41;98225.75;;;16.88;65.13
55418;BME280;41287;47.554;7.844;2023-04-06T05:03:07;98227.03;;;16.90;66.00
55418;BME280;41287;47.554;7.844;2023-04-06T05:05:32;98220.97;;;16.93;67.76
55418;BME280;41287;47.554;7.844;2023-04-06T05:07:58;98228.47;;;16.96;68.62
55418;BME280;41287;47.554;7.844;2023-04-06T05:10:23;98228.16;;;16.98;68.73
55418;BME280;41287;47.554;7.844;2023-04-06T05:12:48;98230.50;;;16.99;68.90
55418;BME280;41287;47.554;7.844;2023-04-06T05:15:16;98235.59;;;17.01;68.85
55418;BME280;41287;47.554;7.844;2023-04-06T05:17:43;98241.50;;;17.03;68.30
55418;BME280;41287;47.554;7.844;2023-04-06T05:20:09;98243.09;;;17.04;68.06
55418;BME280;41287;47.554;7.844;2023-04-06T05:22:34;98238.81;;;17.03;67.64
55418;BME280;41287;47.554;7.844;2023-04-06T05:25:01;98239.91;;;17.02;67.25
55418;BME280;41287;47.554;7.844;2023-04-06T05:27:29;98247.56;;;17.00;67.02
55418;BME280;41287;47.554;7.844;2023-04-06T05:29:56;98250.13;;;16.96;66.49
55418;BME280;41287;47.554;7.844;2023-04-06T05:32:21;98255.03;;;16.94;66.23
55418;BME280;41287;47.554;7.844;2023-04-06T05:34:49;98247.56;;;16.91;65.82
55418;BME280;41287;47.554;7.844;2023-04-06T05:37:15;98248.69;;;16.90;65.57
55418;BME280;41287;47.554;7.844;2023-04-06T05:39:41;98255.19;;;16.89;65.32
55418;BME280;41287;47.554;7.844;2023-04-06T05:42:06;98260.13;;;16.87;65.22
55418;BME280;41287;47.554;7.844;2023-04-06T05:44:32;98259.31;;;16.87;65.06
55418;BME280;41287;47.554;7.844;2023-04-06T05:46:57;98258.06;;;16.84;64.89
55418;BME280;41287;47.554;7.844;2023-04-06T05:49:23;98266.19;;;16.84;64.59
55418;BME280;41287;47.554;7.844;2023-04-06T05:51:48;98256.78;;;16.82;63.43
55418;BME280;41287;47.554;7.844;2023-04-06T05:54:13;98265.69;;;16.82;62.78
55418;BME280;41287;47.554;7.844;2023-04-06T05:56:39;98258.69;;;16.81;62.74
55418;BME280;41287;47.554;7.844;2023-04-06T05:59:05;98258.19;;;16.79;62.65
55418;BME280;41287;47.554;7.844;2023-04-06T06:01:30;98256.63;;;16.78;62.28
55418;BME280;41287;47.554;7.844;2023-04-06T06:03:56;98255.50;;;16.79;62.33
55418;BME280;41287;47.554;7.844;2023-04-06T06:06:21;98263.16;;;16.77;62.11
55418;BME280;41287;47.554;7.844;2023-04-06T06:08:46;98259.66;;;16.77;62.08
55418;BME280;41287;47.554;7.844;2023-04-06T06:11:12;98262.34;;;16.77;61.91
55418;BME280;41287;47.554;7.844;2023-04-06T06:13:37;98264.25;;;16.76;61.58
55418;BME280;41287;47.554;7.844;2023-04-06T06:16:03;98262.66;;;16.75;61.60
55418;BME280;41287;47.554;7.844;2023-04-06T06:18:30;98264.56;;;16.75;61.68
55418;BME280;41287;47.554;7.844;2023-04-06T06:20:55;98264.56;;;16.75;61.73
55418;BME280;41287;47.554;7.844;2023-04-06T06:23:21;98271.09;;;16.74;61.43
55418;BME280;41287;47.554;7.844;2023-04-06T06:25:46;98268.38;;;16.74;61.40
55418;BME280;41287;47.554;7.844;2023-04-06T06:28:12;98271.09;;;16.74;61.30
55418;BME280;41287;47.554;7.844;2023-04-06T06:30:37;98272.22;;;16.73;61.27
55418;BME280;41287;47.554;7.844;2023-04-06T06:33:03;98271.09;;;16.74;61.47
55418;BME280;41287;47.554;7.844;2023-04-06T06:35:28;98274.91;;;16.73;61.36
55418;BME280;41287;47.554;7.844;2023-04-06T06:37:53;98271.41;;;16.72;61.09
55418;BME280;41287;47.554;7.844;2023-04-06T06:40:19;98267.94;;;16.72;61.20
55418;BME280;41287;47.554;7.844;2023-04-06T06:42:47;98258.69;;;16.73;61.50
55418;BME280;41287;47.554;7.844;2023-04-06T06:45:14;98269.03;;;16.71;61.00
55418;BME280;41287;47.554;7.844;2023-04-06T06:47:40;98267.94;;;16.72;61.11
55418;BME280;41287;47.554;7.844;2023-04-06T06:50:06;98270.94;;;16.70;61.23
55418;BME280;41287;47.554;7.844;2023-04-06T06:52:32;98266.34;;;16.71;61.04
55418;BME280;41287;47.554;7.844;2023-04-06T06:54:57;98267.44;;;16.70;61.00
55418;BME280;41287;47.554;7.844;2023-04-06T06:57:23;98273.66;;;16.70;61.00
55418;BME280;41287;47.554;7.844;2023-04-06T06:59:48;98268.25;;;16.70;60.93
55418;BME280;41287;47.554;7.844;2023-04-06T07:02:13;98271.75;;;16.71;60.80
55418;BME280;41287;47.554;7.844;2023-04-06T07:04:39;98264.75;;;16.70;61.08
55418;BME280;41287;47.554;7.844;2023-04-06T07:07:05;98264.75;;;16.70;60.84
55418;BME280;41287;47.554;7.844;2023-04-06T07:09:30;98270.94;;;16.70;60.67
55418;BME280;41287;47.554;7.844;2023-04-06T07:11:56;98269.03;;;16.71;60.72
55418;BME280;41287;47.554;7.844;2023-04-06T07:14:21;98263.63;;;16.71;60.73
55418;BME280;41287;47.554;7.844;2023-04-06T07:16:47;98262.53;;;16.72;60.79
55418;BME280;41287;47.554;7.844;2023-04-06T07:19:14;98263.63;;;16.71;60.79
55418;BME280;41287;47.554;7.844;2023-04-06T07:21:41;98265.22;;;16.72;60.78
55418;BME280;41287;47.554;7.844;2023-04-06T07:24:07;98265.22;;;16.72;60.66
55418;BME280;41287;47.554;7.844;2023-04-06T07:26:32;98271.41;;;16.72;60.83
55418;BME280;41287;47.554;7.844;2023-04-06T07:28:57;98269.50;;;16.73;60.74
55418;BME280;41287;47.554;7.844;2023-04-06T07:31:23;98263.28;;;16.72;60.85
55418;BME280;41287;47.554;7.844;2023-04-06T07:33:48;98267.13;;;16.71;60.81
55418;BME280;41287;47.554;7.844;2023-04-06T07:36:15;98267.13;;;16.71;60.97
55418;BME280;41287;47.554;7.844;2023-04-06T07:38:42;98269.84;;;16.71;61.02
55418;BME280;41287;47.554;7.844;2023-04-06T07:41:07;98267.13;;;16.71;60.95
55418;BME280;41287;47.554;7.844;2023-04-06T07:43:33;98271.75;;;16.71;60.95
55418;BME280;41287;47.554;7.844;2023-04-06T07:45:58;98259.31;;;16.70;60.89
55418;BME280;41287;47.554;7.844;2023-04-06T07:48:25;98268.25;;;16.70;61.02
55418;BME280;41287;47.554;7.844;2023-04-06T07:50:51;98262.84;;;16.70;60.89
55418;BME280;41287;47.554;7.844;2023-04-06T07:53:16;98263.94;;;16.69;61.06
55418;BME280;41287;47.554;7.844;2023-04-06T07:55:41;98263.13;;;16.69;60.88
55418;BME280;41287;47.554;7.844;2023-04-06T07:58:07;98256.63;;;16.70;61.08
55418;BME280;41287;47.554;7.844;2023-04-06T08:00:33;98250.72;;;16.68;61.05
55418;BME280;41287;47.554;7.844;2023-04-06T08:02:58;98250.72;;;16.68;61.06
55418;BME280;41287;47.554;7.844;2023-04-06T08:05:23;98253.44;;;16.68;61.07
55418;BME280;41287;47.554;7.844;2023-04-06T08:07:49;98254.22;;;16.68;61.01
55418;BME280;41287;47.554;7.844;2023-04-06T08:10:14;98254.22;;;16.68;60.92
55418;BME280;41287;47.554;7.844;2023-04-06T08:12:42;98262.34;;;16.68;60.98
55418;BME280;41287;47.554;7.844;2023-04-06T08:15:07;98251.81;;;16.67;61.04
55418;BME280;41287;47.554;7.844;2023-04-06T08:17:33;98255.34;;;16.67;61.02
55418;BME280;41287;47.554;7.844;2023-04-06T08:19:59;98260.75;;;16.67;61.02
55418;BME280;41287;47.554;7.844;2023-04-06T08:22:25;98252.63;;;16.67;61.00
55418;BME280;41287;47.554;7.844;2023-04-06T08:24:50;98259.94;;;16.67;60.99
55418;BME280;41287;47.554;7.844;2023-04-06T08:27:16;98251.81;;;16.67;61.11
55418;BME280;41287;47.554;7.844;2023-04-06T08:29:41;98261.06;;;16.66;61.01
55418;BME280;41287;47.554;7.844;2023-04-06T08:32:07;98258.34;;;16.66;60.96
55418;BME280;41287;47.554;7.844;2023-04-06T08:34:33;98259.16;;;16.66;60.86
55418;BME280;41287;47.554;7.844;2023-04-06T08:36:58;98253.72;;;16.66;61.06
55418;BME280;41287;47.554;7.844;2023-04-06T08:39:24;98258.34;;;16.66;60.92
55418;BME280;41287;47.554;7.844;2023-04-06T08:41:51;98258.34;;;16.66;61.06
55418;BME280;41287;47.554;7.844;2023-04-06T08:44:17;98261.06;;;16.66;60.88
55418;BME280;41287;47.554;7.844;2023-04-06T08:46:43;98255.63;;;16.66;60.92
55418;BME280;41287;47.554;7.844;2023-04-06T08:49:09;98260.25;;;16.65;61.12
55418;BME280;41287;47.554;7.844;2023-04-06T08:51:36;98262.66;;;16.67;61.00
55418;BME280;41287;47.554;7.844;2023-04-06T08:54:02;98263.75;;;16.66;61.04
55418;BME280;41287;47.554;7.844;2023-04-06T08:56:28;98261.06;;;16.66;60.94
55418;BME280;41287;47.554;7.844;2023-04-06T08:58:54;98260.25;;;16.65;60.99
55418;BME280;41287;47.554;7.844;2023-04-06T09:01:27;98258.69;;;16.64;61.04
55418;BME280;41287;47.554;7.844;2023-04-06T09:03:58;98262.19;;;16.65;60.57
55418;BME280;41287;47.554;7.844;2023-04-06T09:06:26;98260.25;;;16.65;60.96
55418;BME280;41287;47.554;7.844;2023-04-06T09:08:55;98250.22;;;16.66;61.01
55418;BME280;41287;47.554;7.844;2023-04-06T09:11:22;98258.69;;;16.64;60.92
55418;BME280;41287;47.554;7.844;2023-04-06T09:13:49;98255.97;;;16.64;61.05
55418;BME280;41287;47.554;7.844;2023-04-06T09:16:15;98258.69;;;16.64;60.92
55418;BME280;41287;47.554;7.844;2023-04-06T09:18:41;98258.69;;;16.64;60.99
55418;BME280;41287;47.554;7.844;2023-04-06T09:21:07;98249.44;;;16.65;61.04
55418;BME280;41287;47.554;7.844;2023-04-06T09:23:33;98252.94;;;16.66;61.08
55418;BME280;41287;47.554;7.844;2023-04-06T09:26:07;98252.47;;;16.64;61.04
55418;BME280;41287;47.554;7.844;2023-04-06T09:28:54;98259.00;;;16.63;60.95
55418;BME280;41287;47.554;7.844;2023-04-06T09:31:27;98254.06;;;16.65;61.05
55418;BME280;41287;47.554;7.844;2023-04-06T09:33:53;98247.38;;;16.62;61.02
55418;BME280;41287;47.554;7.844;2023-04-06T09:36:19;98249.13;;;16.67;60.98
55418;BME280;41287;47.554;7.844;2023-04-06T09:38:53;98250.56;;;16.64;60.95
55418;BME280;41287;47.554;7.844;2023-04-06T09:41:48;98245.47;;;16.63;61.03
55418;BME280;41287;47.554;7.844;2023-04-06T09:44:13;98243.25;;;16.65;60.82
55418;BME280;41287;47.554;7.844;2023-04-06T09:46:42;98240.56;;;16.65;60.88
55418;BME280;41287;47.554;7.844;2023-04-06T09:49:09;98241.31;;;16.65;60.87
55418;BME280;41287;47.554;7.844;2023-04-06T09:51:44;98237.03;;;16.64;60.82
55418;BME280;41287;47.554;7.844;2023-04-06T09:54:15;98241.66;;;16.64;60.90
55418;BME280;41287;47.554;7.844;2023-04-06T09:56:48;98240.84;;;16.63;61.06
55418;BME280;41287;47.554;7.844;2023-04-06T09:59:25;98235.44;;;16.63;61.01
55418;BME280;41287;47.554;7.844;2023-04-06T10:01:53;98231.63;;;16.64;60.92
55418;BME280;41287;47.554;7.844;2023-04-06T10:04:46;98231.16;;;16.62;60.94
55418;BME280;41287;47.554;7.844;2023-04-06T10:07:13;98226.22;;;16.64;60.96
55418;BME280;41287;47.554;7.844;2023-04-06T10:09:41;98224.31;;;16.65;60.82
55418;BME280;41287;47.554;7.844;2023-04-06T10:12:09;98227.03;;;16.65;60.88
55418;BME280;41287;47.554;7.844;2023-04-06T10:14:35;98228.94;;;16.64;60.75
55418;BME280;41287;47.554;7.844;2023-04-06T10:17:05;98223.50;;;16.64;60.77
55418;BME280;41287;47.554;7.844;2023-04-06T10:22:05;98220.00;;;16.64;60.63
55418;BME280;41287;47.554;7.844;2023-04-06T10:24:31;98219.22;;;16.63;60.87
55418;BME280;41287;47.554;7.844;2023-04-06T10:27:03;98214.59;;;16.64;60.73
55418;BME280;41287;47.554;7.844;2023-04-06T10:29:44;98214.91;;;16.62;60.73
55418;BME280;41287;47.554;7.844;2023-04-06T10:32:10;98213.50;;;16.65;60.80
55418;BME280;41287;47.554;7.844;2023-04-06T10:34:36;98218.09;;;16.64;60.74
55418;BME280;41287;47.554;7.844;2023-04-06T10:37:12;98207.59;;;16.63;60.84
55418;BME280;41287;47.554;7.844;2023-04-06T10:39:46;98207.59;;;16.63;60.69
55418;BME280;41287;47.554;7.844;2023-04-06T10:42:12;98206.16;;;16.65;60.81
55418;BME280;41287;47.554;7.844;2023-04-06T10:44:42;98205.38;;;16.65;60.82
55418;BME280;41287;47.554;7.844;2023-04-06T10:47:15;98203.78;;;16.64;60.89
55418;BME280;41287;47.554;7.844;2023-04-06T10:49:42;98208.09;;;16.65;60.34
55418;BME280;41287;47.554;7.844;2023-04-06T10:52:07;98194.56;;;16.65;60.86
55418;BME280;41287;47.554;7.844;2023-04-06T10:54:33;98205.38;;;16.65;60.79
55418;BME280;41287;47.554;7.844;2023-04-06T10:56:58;98196.47;;;16.64;60.82
55418;BME280;41287;47.554;7.844;2023-04-06T10:59:24;98194.56;;;16.65;60.80
55418;BME280;41287;47.554;7.844;2023-04-06T11:01:50;98201.53;;;16.66;60.95
55418;BME280;41287;47.554;7.844;2023-04-06T11:04:19;98188.00;;;16.66;60.86
55418;BME280;41287;47.554;7.844;2023-04-06T11:06:49;98199.97;;;16.65;61.10
55418;BME280;41287;47.554;7.844;2023-04-06T11:11:51;98198.81;;;16.66;60.86
55418;BME280;41287;47.554;7.844;2023-04-06T11:14:18;98199.63;;;16.66;61.13
55418;BME280;41287;47.554;7.844;2023-04-06T11:16:46;98184.50;;;16.65;60.80
55418;BME280;41287;47.554;7.844;2023-04-06T11:19:12;98177.19;;;16.66;60.79
55418;BME280;41287;47.554;7.844;2023-04-06T11:21:40;98179.09;;;16.65;60.93
55418;BME280;41287;47.554;7.844;2023-04-06T11:24:14;98179.09;;;16.65;60.82
55418;BME280;41287;47.554;7.844;2023-04-06T11:26:44;98172.56;;;16.66;61.00
55418;BME280;41287;47.554;7.844;2023-04-06T11:29:15;98168.28;;;16.65;60.82
55418;BME280;41287;47.554;7.844;2023-04-06T11:31:52;98172.13;;;16.64;60.88
55418;BME280;41287;47.554;7.844;2023-04-06T11:34:20;98176.06;;;16.67;60.93
55418;BME280;41287;47.554;7.844;2023-04-06T11:36:47;98169.06;;;16.66;60.87
55418;BME280;41287;47.554;7.844;2023-04-06T11:39:19;98167.16;;;16.66;61.08
55418;BME280;41287;47.554;7.844;2023-04-06T11:41:48;98164.78;;;16.65;60.84
55418;BME280;41287;47.554;7.844;2023-04-06T11:44:14;98166.38;;;16.66;60.86
55418;BME280;41287;47.554;7.844;2023-04-06T11:46:39;98160.94;;;16.66;60.88
55418;BME280;41287;47.554;7.844;2023-04-06T11:49:05;98163.66;;;16.66;61.00
55418;BME280;41287;47.554;7.844;2023-04-06T11:51:35;98162.53;;;16.67;60.88
55418;BME280;41287;47.554;7.844;2023-04-06T11:54:01;98161.75;;;16.66;61.01
55418;BME280;41287;47.554;7.844;2023-04-06T11:56:30;98150.94;;;16.66;60.87
55418;BME280;41287;47.554;7.844;2023-04-06T11:58:56;98153.63;;;16.66;60.85
55418;BME280;41287;47.554;7.844;2023-04-06T12:01:24;98160.63;;;16.67;61.00
55418;BME280;41287;47.554;7.844;2023-04-06T12:03:51;98153.63;;;16.66;60.93
55418;BME280;41287;47.554;7.844;2023-04-06T12:06:17;98148.22;;;16.66;60.95
55418;BME280;41287;47.554;7.844;2023-04-06T12:08:42;98151.72;;;16.67;60.87
55418;BME280;41287;47.554;7.844;2023-04-06T12:11:08;98144.72;;;16.66;60.85
55418;BME280;41287;47.554;7.844;2023-04-06T12:13:33;98147.13;;;16.67;60.51
55418;BME280;41287;47.554;7.844;2023-04-06T12:15:59;98145.50;;;16.66;61.00
55418;BME280;41287;47.554;7.844;2023-04-06T12:18:24;98142.00;;;16.66;60.89
55418;BME280;41287;47.554;7.844;2023-04-06T12:20:51;98134.69;;;16.66;60.90
55418;BME280;41287;47.554;7.844;2023-04-06T12:23:19;98142.00;;;16.66;60.97
55418;BME280;41287;47.554;7.844;2023-04-06T12:25:45;98145.50;;;16.66;61.18
55418;BME280;41287;47.554;7.844;2023-04-06T12:28:10;98138.19;;;16.67;60.99
55418;BME280;41287;47.554;7.844;2023-04-06T12:30:36;98133.09;;;16.65;60.84
55418;BME280;41287;47.554;7.844;2023-04-06T12:33:01;98133.09;;;16.65;61.12
55418;BME280;41287;47.554;7.844;2023-04-06T12:35:27;98127.38;;;16.67;60.90
55418;BME280;41287;47.554;7.844;2023-04-06T12:37:54;98127.38;;;16.67;60.94
55418;BME280;41287;47.554;7.844;2023-04-06T12:40:20;98132.78;;;16.67;60.85
55418;BME280;41287;47.554;7.844;2023-04-06T12:42:46;98124.66;;;16.67;60.99
55418;BME280;41287;47.554;7.844;2023-04-06T12:45:11;98123.88;;;16.66;61.00
55418;BME280;41287;47.554;7.844;2023-04-06T12:47:37;98123.06;;;16.66;60.92
55418;BME280;41287;47.554;7.844;2023-04-06T12:50:05;98120.38;;;16.66;60.93
55418;BME280;41287;47.554;7.844;2023-04-06T12:52:31;98120.38;;;16.66;60.95
55418;BME280;41287;47.554;7.844;2023-04-06T12:54:57;98121.16;;;16.66;60.99
55418;BME280;41287;47.554;7.844;2023-04-06T12:57:24;98116.56;;;16.67;60.92
55418;BME280;41287;47.554;7.844;2023-04-06T12:59:50;98113.84;;;16.67;60.92
55418;BME280;41287;47.554;7.844;2023-04-06T13:02:16;98128.50;;;16.66;60.92